Time;durP1;ratioP1;P1;durP2;ratioP2;P2;SDS_P1;SDS_P2;PMS_P1;PMS_P2;Temp;Humidity;BMP_temperature;BMP_pressure;BME280_temperature;BME280_humidity;BME280_pressure;Samples;Min_cycle;Max_cycle;Signal;HPM_P1;HPM_P2
2021/10/01 00:00:38;;;;;;;12.85;11.55;;;;;;;6.83;61.64;102535.45;454725;113;922619;-77
2021/10/01 00:01:42;;;;;;;11.94;10.86;;;;;;;6.83;61.65;102538.17;468543;112;923145;-77
2021/10/01 00:02:46;;;;;;;12.31;11.13;;;;;;;6.84;61.66;102539.86;465098;112;922612;-77
2021/10/01 00:03:50;;;;;;;12.70;11.51;;;;;;;6.86;61.68;102545.14;464707;112;922687;-78
2021/10/01 00:04:54;;;;;;;14.45;11.78;;;;;;;6.87;61.69;102544.16;464300;112;922528;-77
2021/10/01 00:05:58;;;;;;;14.27;12.13;;;;;;;6.88;61.60;102548.59;466661;112;922845;-77
2021/10/01 00:07:02;;;;;;;13.61;12.40;;;;;;;6.88;61.53;102544.02;466717;112;922919;-77
2021/10/01 00:08:06;;;;;;;13.85;12.56;;;;;;;6.88;61.45;102545.88;469408;112;922542;-78
2021/10/01 00:09:10;;;;;;;13.06;11.86;;;;;;;6.88;61.45;102544.02;469787;112;922522;-78
2021/10/01 00:10:15;;;;;;;13.86;12.46;;;;;;;6.88;61.45;102545.88;465268;112;923240;-77
2021/10/01 00:11:19;;;;;;;13.65;12.23;;;;;;;6.88;61.46;102546.73;465087;112;923352;-78
2021/10/01 00:12:23;;;;;;;13.06;11.81;;;;;;;6.88;61.50;102544.02;456253;114;922581;-78
2021/10/01 00:13:27;;;;;;;13.60;12.31;;;;;;;6.90;61.50;102536.58;460775;114;923017;-78
2021/10/01 00:14:31;;;;;;;13.98;12.38;;;;;;;6.90;61.43;102544.71;456627;114;922565;-78
2021/10/01 00:15:35;;;;;;;12.85;11.57;;;;;;;6.90;61.35;102539.29;457388;114;923102;-78
2021/10/01 00:16:39;;;;;;;13.31;11.99;;;;;;;6.89;61.27;102545.70;460488;114;923232;-77
2021/10/01 00:17:43;;;;;;;13.25;12.00;;;;;;;6.88;61.35;102541.31;460288;114;922979;-77
2021/10/01 00:18:47;;;;;;;12.72;11.55;;;;;;;6.89;61.44;102547.59;458149;113;922588;-78
2021/10/01 00:19:52;;;;;;;12.41;11.35;;;;;;;6.89;61.45;102553.84;459820;115;923093;-78
2021/10/01 00:20:58;;;;;;;12.28;10.64;;;;;;;6.91;61.45;102551.86;457816;115;922639;-79
2021/10/01 00:22:02;;;;;;;12.16;11.09;;;;;;;6.92;61.41;102553.57;458368;114;922810;-78
2021/10/01 00:23:06;;;;;;;13.65;10.91;;;;;;;6.94;61.37;102545.30;456868;113;922452;-78
2021/10/01 00:24:11;;;;;;;12.39;11.22;;;;;;;6.95;61.32;102550.56;465601;112;922420;-78
2021/10/01 00:25:14;;;;;;;11.08;9.97;;;;;;;6.97;61.29;102550.42;459812;114;930358;-79
2021/10/01 00:26:18;;;;;;;10.89;9.92;;;;;;;6.98;61.25;102550.29;461760;113;930540;-77
2021/10/01 00:27:22;;;;;;;11.91;10.77;;;;;;;6.98;61.20;102546.72;454346;114;922465;-77
2021/10/01 00:28:26;;;;;;;12.99;11.45;;;;;;;6.98;61.08;102550.29;441386;118;923324;-79
2021/10/01 00:29:30;;;;;;;12.43;10.78;;;;;;;6.97;61.12;102556.70;452695;113;923195;-78
2021/10/01 00:30:35;;;;;;;11.72;10.44;;;;;;;6.96;61.08;102554.13;463134;113;922723;-79
2021/10/01 00:31:41;;;;;;;11.93;10.80;;;;;;;6.94;61.02;102548.02;464252;111;922608;-77
2021/10/01 00:32:45;;;;;;;12.06;10.82;;;;;;;6.93;61.01;102551.72;452661;114;922869;-77
2021/10/01 00:33:49;;;;;;;11.69;10.16;;;;;;;6.88;61.04;102549.44;453237;116;922473;-77
2021/10/01 00:34:52;;;;;;;11.36;10.24;;;;;;;6.84;61.03;102547.99;458978;114;922833;-78
2021/10/01 00:35:59;;;;;;;11.09;9.94;;;;;;;6.82;61.13;102555.43;461931;113;922492;-77
2021/10/01 00:37:03;;;;;;;12.17;10.99;;;;;;;6.81;61.18;102555.56;463306;113;930568;-77
2021/10/01 00:38:07;;;;;;;11.38;10.28;;;;;;;6.78;61.23;102556.69;463044;113;922746;-78
2021/10/01 00:39:11;;;;;;;11.04;10.04;;;;;;;6.78;61.25;102555.86;463615;113;922499;-78
2021/10/01 00:40:16;;;;;;;11.22;9.36;;;;;;;6.77;61.30;102564.98;462121;111;922539;-77
2021/10/01 00:41:20;;;;;;;10.46;9.42;;;;;;;6.75;61.31;102554.28;463014;113;922911;-80
2021/10/01 00:42:24;;;;;;;10.42;9.24;;;;;;;6.75;61.37;102556.98;462154;113;922611;-77
2021/10/01 00:43:28;;;;;;;10.84;9.79;;;;;;;6.75;61.42;102553.42;464060;113;930536;-78
2021/10/01 00:44:32;;;;;;;9.69;8.81;;;;;;;6.75;61.41;102553.42;462935;113;923021;-78
2021/10/01 00:45:36;;;;;;;10.09;8.87;;;;;;;6.76;61.42;102555.14;461584;113;923140;-77
2021/10/01 00:46:41;;;;;;;9.69;8.71;;;;;;;6.74;61.38;102552.56;463104;111;922481;-78
2021/10/01 00:47:45;;;;;;;10.16;9.21;;;;;;;6.73;61.33;102561.69;457028;114;922454;-78
2021/10/01 00:48:49;;;;;;;9.31;8.38;;;;;;;6.71;61.28;102560.98;457234;114;922767;-78
2021/10/01 00:49:53;;;;;;;8.58;7.84;;;;;;;6.68;61.30;102555.83;455983;115;923011;-78
2021/10/01 00:50:58;;;;;;;8.76;7.96;;;;;;;6.64;61.27;102552.56;462449;114;922987;-77
2021/10/01 00:52:02;;;;;;;10.22;8.47;;;;;;;6.61;61.37;102555.56;456889;114;922561;-77
2021/10/01 00:53:06;;;;;;;9.61;8.67;;;;;;;6.59;61.43;102557.55;459491;114;922571;-78
2021/10/01 00:54:10;;;;;;;9.26;7.95;;;;;;;6.57;61.48;102559.53;460889;114;923040;-77
2021/10/01 00:55:14;;;;;;;7.39;6.76;;;;;;;6.56;61.51;102556.98;459697;114;930674;-78
2021/10/01 00:56:21;;;;;;;8.14;7.45;;;;;;;6.53;61.50;102559.95;463923;111;922390;-77
2021/10/01 00:57:24;;;;;;;9.16;7.84;;;;;;;6.52;61.60;102560.95;462443;113;922545;-78
2021/10/01 00:58:29;;;;;;;8.36;7.58;;;;;;;6.52;61.62;102560.95;462803;113;922539;-78
2021/10/01 00:59:33;;;;;;;8.33;7.61;;;;;;;6.52;61.62;102560.95;462759;113;922940;-78
2021/10/01 01:00:47;;;;;;;8.57;7.80;;;;;;;6.51;61.63;102556.52;463613;113;922643;-77
2021/10/01 01:01:42;;;;;;;7.80;7.15;;;;;;;6.50;61.59;102563.83;462802;113;922677;-77
2021/10/01 01:02:47;;;;;;;7.49;6.76;;;;;;;6.48;61.59;102562.23;463990;112;922532;-78
2021/10/01 01:03:56;;;;;;;8.57;7.22;;;;;;;6.46;61.59;102564.22;463777;113;922581;-77
2021/10/01 01:05:00;;;;;;;8.85;7.08;;;;;;;6.43;61.69;102564.51;461907;114;922987;-77
2021/10/01 01:06:33;;;;;;;7.13;6.49;;;;;;;6.43;61.83;102559.09;463790;113;922444;-78
2021/10/01 01:07:49;;;;;;;7.44;6.66;;;;;;;6.44;61.86;102560.81;462710;113;922517;-78
2021/10/01 01:09:10;;;;;;;8.02;6.62;;;;;;;6.46;61.88;102561.50;458632;114;922732;-77
2021/10/01 01:10:21;;;;;;;7.16;6.21;;;;;;;6.47;61.80;102557.80;451482;114;922501;-78
2021/10/01 01:11:48;;;;;;;8.04;7.25;;;;;;;6.45;61.78;102554.40;443382;118;922456;-78
2021/10/01 01:13:12;;;;;;;10.08;6.87;;;;;;;6.45;61.75;102562.53;428057;119;930874;-78
2021/10/01 01:14:22;;;;;;;7.53;6.53;;;;;;;6.40;61.76;102559.35;450109;116;922605;-77
2021/10/01 01:15:30;;;;;;;8.41;6.77;;;;;;;6.36;61.85;102555.22;447623;116;922926;-76
2021/10/01 01:16:36;;;;;;;8.00;7.30;;;;;;;6.34;61.89;102557.23;440530;118;924269;-78
2021/10/01 01:17:47;;;;;;;8.04;7.31;;;;;;;6.32;61.91;102554.65;441184;116;923028;-77
2021/10/01 01:18:54;;;;;;;7.55;6.52;;;;;;;6.32;61.98;102551.94;448032;116;922846;-77
2021/10/01 01:20:13;;;;;;;7.91;7.04;;;;;;;6.32;61.98;102560.06;451659;116;922653;-77
2021/10/01 01:21:21;;;;;;;7.16;6.55;;;;;;;6.34;61.99;102562.64;453980;115;922540;-78
2021/10/01 01:22:41;;;;;;;7.54;6.84;;;;;;;6.46;62.01;102556.09;479904;110;947205;-78
2021/10/01 01:24:26;;;;;;;7.11;6.51;;;;;;;6.45;62.01;102559.82;482179;108;947005;-77
2021/10/01 01:25:53;;;;;;;8.16;7.31;;;;;;;6.34;61.97;102560.77;473243;111;922496;-78
2021/10/01 01:27:19;;;;;;;7.14;6.42;;;;;;;6.31;62.04;102560.20;463486;114;922672;-78
2021/10/01 01:28:43;;;;;;;8.82;7.47;;;;;;;6.29;62.11;102560.33;466241;112;922895;-77
2021/10/01 01:30:06;;;;;;;11.13;7.00;;;;;;;6.28;62.12;102559.47;471861;111;922549;-78
2021/10/01 01:31:33;;;;;;;8.04;7.18;;;;;;;6.28;62.16;102561.34;472077;112;922516;-78
2021/10/01 01:32:40;;;;;;;7.90;7.21;;;;;;;6.26;62.14;102558.77;449432;116;923250;-77
2021/10/01 01:33:46;;;;;;;7.71;6.93;;;;;;;6.23;62.17;102558.17;442789;119;923160;-78
2021/10/01 01:34:57;;;;;;;8.78;7.29;;;;;;;6.19;62.18;102560.31;451070;112;922718;-79
2021/10/01 01:36:01;;;;;;;9.04;8.27;;;;;;;6.15;62.17;102553.46;471798;111;922585;-79
2021/10/01 01:37:10;;;;;;;8.35;7.55;;;;;;;6.12;62.19;102548.30;472719;112;924641;-77
2021/10/01 01:38:21;;;;;;;8.61;7.81;;;;;;;6.09;62.21;102548.59;471632;112;922637;-77
2021/10/01 01:39:27;;;;;;;8.46;7.76;;;;;;;6.06;62.22;102548.88;457277;114;922648;-78
2021/10/01 01:40:34;;;;;;;9.03;8.20;;;;;;;6.03;62.29;102554.55;458751;112;922945;-78
2021/10/01 01:41:39;;;;;;;9.74;8.69;;;;;;;6.00;62.33;102552.14;473462;112;922597;-77
2021/10/01 01:42:44;;;;;;;10.01;8.44;;;;;;;5.97;62.36;102546.12;472594;111;922981;-77
2021/10/01 01:43:49;;;;;;;10.59;9.22;;;;;;;5.93;62.45;102550.96;463100;114;922946;-77
2021/10/01 01:44:54;;;;;;;10.59;8.99;;;;;;;5.92;62.53;102557.36;463761;112;923129;-77
2021/10/01 01:46:00;;;;;;;10.35;9.33;;;;;;;5.89;62.56;102548.67;473102;112;923067;-78
2021/10/01 01:47:04;;;;;;;10.23;8.71;;;;;;;5.89;62.70;102556.79;473188;112;922498;-78
2021/10/01 01:48:09;;;;;;;10.06;8.64;;;;;;;5.88;62.74;102555.93;472776;111;922477;-78
2021/10/01 01:49:16;;;;;;;8.96;8.16;;;;;;;5.87;62.74;102551.50;472321;111;930373;-76
2021/10/01 01:50:21;;;;;;;9.99;9.02;;;;;;;5.88;62.87;102555.07;472542;112;922486;-79
2021/10/01 01:51:26;;;;;;;11.12;9.65;;;;;;;5.90;62.91;102558.51;472736;112;922502;-78
2021/10/01 01:52:32;;;;;;;11.43;8.61;;;;;;;5.91;62.95;102560.20;472012;111;924054;-78
2021/10/01 01:53:37;;;;;;;9.88;8.37;;;;;;;5.92;62.96;102557.36;462971;114;923156;-78
2021/10/01 01:54:41;;;;;;;9.32;8.44;;;;;;;5.93;63.03;102564.50;463967;112;923091;-77
2021/10/01 01:55:46;;;;;;;8.66;7.91;;;;;;;5.97;63.06;102554.24;472953;111;922557;-77
2021/10/01 01:56:53;;;;;;;8.84;8.13;;;;;;;5.98;63.05;102559.53;472980;112;922471;-77
2021/10/01 01:57:59;;;;;;;9.72;8.92;;;;;;;6.00;63.03;102557.55;472140;112;923054;-77
2021/10/01 01:59:08;;;;;;;8.28;7.56;;;;;;;6.01;63.00;102553.83;453608;112;922833;-78
2021/10/01 02:00:15;;;;;;;9.18;8.26;;;;;;;6.03;62.99;102559.97;472871;111;923053;-78
2021/10/01 02:01:27;;;;;;;8.95;8.13;;;;;;;6.04;62.98;102550.86;472956;112;922513;-76
2021/10/01 02:02:36;;;;;;;11.03;9.48;;;;;;;6.05;62.93;102557.14;471095;112;923024;-79
2021/10/01 02:03:41;;;;;;;8.89;8.09;;;;;;;6.05;62.93;102560.70;462758;113;930658;-80
2021/10/01 02:04:48;;;;;;;9.11;8.27;;;;;;;6.05;62.93;102560.70;463799;112;930670;-78
2021/10/01 02:05:52;;;;;;;8.85;8.05;;;;;;;6.06;62.96;102550.73;473394;112;923065;-78
2021/10/01 02:06:56;;;;;;;10.02;9.22;;;;;;;6.07;62.99;102555.13;473753;112;922633;-78
2021/10/01 02:08:01;;;;;;;8.74;7.94;;;;;;;6.06;62.95;102556.15;473232;111;922636;-78
2021/10/01 02:09:05;;;;;;;9.28;8.48;;;;;;;6.05;62.88;102555.29;473246;111;923090;-76
2021/10/01 02:10:13;;;;;;;8.21;7.45;;;;;;;6.03;62.86;102559.97;472518;112;922973;-77
2021/10/01 02:11:18;;;;;;;9.48;8.59;;;;;;;6.01;62.88;102561.95;472781;112;922558;-77
2021/10/01 02:12:23;;;;;;;11.77;8.72;;;;;;;5.98;62.88;102562.23;472060;111;922596;-78
2021/10/01 02:13:29;;;;;;;9.41;8.42;;;;;;;5.96;62.96;102564.21;473065;112;922582;-78
2021/10/01 02:14:38;;;;;;;9.44;8.58;;;;;;;5.96;63.06;102560.64;471544;111;922945;-77
2021/10/01 02:15:45;;;;;;;9.69;8.80;;;;;;;5.95;63.19;102559.81;471667;111;922665;-77
2021/10/01 02:16:50;;;;;;;9.93;8.83;;;;;;;5.96;63.21;102558.80;473613;112;923030;-76
2021/10/01 02:17:56;;;;;;;9.98;8.77;;;;;;;5.97;63.24;102556.95;472742;112;922838;-77
2021/10/01 02:19:02;;;;;;;8.82;8.02;;;;;;;5.96;63.21;102553.38;473390;112;930542;-78
2021/10/01 02:20:09;;;;;;;9.61;8.66;;;;;;;5.97;63.21;102554.24;471925;111;922457;-77
2021/10/01 02:21:14;;;;;;;9.78;9.01;;;;;;;5.97;63.20;102554.24;465990;113;922596;-78
2021/10/01 02:22:20;;;;;;;10.14;9.18;;;;;;;5.97;63.17;102562.36;463470;112;922750;-78
2021/10/01 02:23:24;;;;;;;9.69;8.89;;;;;;;5.95;63.16;102561.66;472166;111;922913;-77
2021/10/01 02:24:28;;;;;;;9.31;8.09;;;;;;;5.94;63.22;102555.39;472225;111;922523;-78
2021/10/01 02:27:04;;;;;;;10.88;9.84;;;;;;;5.96;63.39;102563.35;472168;112;922982;-76
2021/10/01 02:28:11;;;;;;;10.01;9.21;;;;;;;5.95;63.40;102554.41;457514;111;922882;-76
2021/10/01 02:29:33;;;;;;;11.47;10.34;;;;;;;5.96;63.38;102560.64;473029;112;922428;-78
2021/10/01 02:30:45;;;;;;;11.02;10.06;;;;;;;6.08;63.40;102559.55;472133;110;947115;-77
2021/10/01 02:31:52;;;;;;;11.92;10.83;;;;;;;5.97;63.42;102555.09;464630;113;922463;-78
2021/10/01 02:33:02;;;;;;;11.90;10.68;;;;;;;5.98;63.40;102559.53;458796;113;922963;-78
2021/10/01 02:34:08;;;;;;;11.09;10.07;;;;;;;6.00;63.36;102560.26;451827;116;922440;-77
2021/10/01 02:35:12;;;;;;;11.46;10.38;;;;;;;6.04;63.36;102563.54;452568;116;922790;-77
2021/10/01 02:36:16;;;;;;;12.35;11.37;;;;;;;6.05;63.31;102567.97;453371;116;923026;-78
2021/10/01 02:37:20;;;;;;;12.42;11.29;;;;;;;6.07;63.27;102560.55;452566;116;923198;-76
2021/10/01 02:38:23;;;;;;;12.71;11.52;;;;;;;6.09;63.22;102562.13;452916;116;923329;-77
2021/10/01 02:39:27;;;;;;;13.50;12.07;;;;;;;6.12;63.11;102561.02;453732;116;930205;-76
2021/10/01 02:40:32;;;;;;;13.97;12.66;;;;;;;6.14;63.04;102564.42;452402;116;930401;-77
2021/10/01 02:41:35;;;;;;;14.42;12.76;;;;;;;6.14;62.97;102557.16;452607;116;930413;-77
2021/10/01 02:42:39;;;;;;;12.66;11.57;;;;;;;6.17;62.83;102566.88;451173;116;922979;-78
2021/10/01 02:43:42;;;;;;;12.89;11.73;;;;;;;6.17;62.81;102562.32;452299;116;930977;-78
2021/10/01 02:44:47;;;;;;;13.26;11.41;;;;;;;6.18;62.81;102561.30;453126;116;930324;-78
2021/10/01 02:45:51;;;;;;;12.52;11.13;;;;;;;6.19;62.82;102570.28;453363;116;922481;-77
2021/10/01 02:46:54;;;;;;;12.72;11.24;;;;;;;6.20;62.75;102564.73;451514;116;923280;-77
2021/10/01 02:48:00;;;;;;;12.86;11.66;;;;;;;6.21;62.69;102563.75;452899;116;930230;-77
2021/10/01 02:49:04;;;;;;;12.88;11.76;;;;;;;6.22;62.63;102570.89;442028;118;930559;-77
2021/10/01 02:50:11;;;;;;;12.46;11.30;;;;;;;6.24;62.57;102573.43;446022;116;923057;-77
2021/10/01 02:51:18;;;;;;;13.43;11.99;;;;;;;6.25;62.51;102580.57;451064;116;930369;-78
2021/10/01 02:52:34;;;;;;;13.59;12.28;;;;;;;6.26;62.43;102574.16;450123;115;922670;-78
2021/10/01 02:54:07;;;;;;;13.83;12.19;;;;;;;6.25;62.29;102569.73;436849;116;923195;-78
2021/10/01 02:55:26;;;;;;;12.48;11.34;;;;;;;6.24;62.20;102574.30;452605;116;922837;-77
2021/10/01 02:56:34;;;;;;;11.30;10.41;;;;;;;6.24;62.05;102578.84;446197;116;922613;-77
2021/10/01 02:57:41;;;;;;;13.10;11.18;;;;;;;6.20;61.97;102578.28;453098;116;922543;-77
2021/10/01 02:58:51;;;;;;;10.48;9.53;;;;;;;6.18;61.98;102574.84;453080;116;922541;-78
2021/10/01 02:59:58;;;;;;;10.50;9.49;;;;;;;6.18;61.90;102582.97;452495;116;923148;-77
2021/10/01 03:01:08;;;;;;;9.61;8.74;;;;;;;6.16;61.88;102575.98;452218;116;924007;-78
2021/10/01 03:02:12;;;;;;;9.53;8.52;;;;;;;6.15;61.84;102574.27;453346;116;922956;-79
2021/10/01 03:03:22;;;;;;;11.38;8.92;;;;;;;6.13;61.79;102582.52;451058;116;922695;-77
2021/10/01 03:04:26;;;;;;;7.80;7.08;;;;;;;6.13;61.69;102587.08;451911;116;922712;-79
2021/10/01 03:05:30;;;;;;;7.58;6.93;;;;;;;6.09;61.56;102581.09;452711;116;922793;-78
2021/10/01 03:06:38;;;;;;;7.28;6.68;;;;;;;6.07;61.57;102583.06;451350;116;925695;-77
2021/10/01 03:07:44;;;;;;;8.04;6.73;;;;;;;6.04;61.54;102579.79;451422;116;922976;-76
2021/10/01 03:08:51;;;;;;;7.14;6.55;;;;;;;6.00;61.54;102584.62;452177;116;922510;-77
2021/10/01 03:09:56;;;;;;;8.38;6.28;;;;;;;5.98;61.57;102583.89;447354;117;922715;-80
2021/10/01 03:11:02;;;;;;;6.91;6.33;;;;;;;5.97;61.67;102584.88;447838;116;923125;-78
2021/10/01 03:12:06;;;;;;;6.38;5.63;;;;;;;5.97;61.75;102589.44;452013;116;922426;-77
2021/10/01 03:13:11;;;;;;;6.69;6.08;;;;;;;5.97;61.79;102582.17;452295;115;922728;-78
2021/10/01 03:14:17;;;;;;;7.21;6.34;;;;;;;5.98;61.75;102591.16;452139;116;922469;-77
2021/10/01 03:15:21;;;;;;;9.63;8.72;;;;;;;5.98;61.73;102583.03;451590;116;922551;-78
2021/10/01 03:16:25;;;;;;;10.18;9.28;;;;;;;5.99;61.79;102587.47;451937;116;922448;-78
2021/10/01 03:17:31;;;;;;;9.72;8.76;;;;;;;6.00;61.74;102586.48;451402;116;922626;-77
2021/10/01 03:18:36;;;;;;;10.11;8.52;;;;;;;5.98;61.73;102586.61;452108;116;922710;-78
2021/10/01 03:19:39;;;;;;;8.66;7.93;;;;;;;5.99;61.72;102585.62;451882;116;922973;-77
2021/10/01 03:20:46;;;;;;;9.36;8.47;;;;;;;5.98;61.58;102583.03;452291;116;923084;-77
2021/10/01 03:21:52;;;;;;;8.95;7.91;;;;;;;5.95;61.57;102589.60;451278;116;922347;-78
2021/10/01 03:22:56;;;;;;;10.17;7.68;;;;;;;5.93;61.61;102585.30;452581;116;930555;-77
2021/10/01 03:24:00;;;;;;;9.91;8.89;;;;;;;5.92;61.77;102591.70;452578;116;922677;-77
2021/10/01 03:25:06;;;;;;;9.09;8.21;;;;;;;5.90;61.91;102583.70;451988;116;922997;-77
2021/10/01 03:26:12;;;;;;;8.98;7.58;;;;;;;5.92;61.98;102600.69;451628;116;923087;-77
2021/10/01 03:27:16;;;;;;;9.05;7.48;;;;;;;5.94;61.99;102592.44;451359;116;922620;-76
2021/10/01 03:28:20;;;;;;;9.31;8.41;;;;;;;5.95;62.01;102591.45;451975;116;922346;-78
2021/10/01 03:29:24;;;;;;;10.42;8.52;;;;;;;5.95;61.95;102592.30;452050;116;931044;-78
2021/10/01 03:30:28;;;;;;;8.72;7.91;;;;;;;5.95;61.93;102591.45;453471;116;923540;-78
2021/10/01 03:31:32;;;;;;;9.74;8.75;;;;;;;5.95;61.92;102594.16;452762;116;922892;-77
2021/10/01 03:32:37;;;;;;;10.38;8.25;;;;;;;5.95;61.96;102595.02;452119;116;922318;-77
2021/10/01 03:33:42;;;;;;;9.28;8.42;;;;;;;5.96;61.97;102595.84;451627;116;922477;-77
2021/10/01 03:34:46;;;;;;;8.49;7.78;;;;;;;5.96;61.94;102596.70;446401;118;922490;-78
2021/10/01 03:35:51;;;;;;;8.29;7.49;;;;;;;5.98;61.93;102599.28;446433;116;922636;-77
2021/10/01 03:36:55;;;;;;;7.80;6.88;;;;;;;5.98;61.90;102605.56;453176;116;922490;-79
2021/10/01 03:37:59;;;;;;;7.43;6.68;;;;;;;6.00;61.65;102598.17;453162;116;922503;-78
2021/10/01 03:39:04;;;;;;;7.04;6.21;;;;;;;6.00;61.65;102598.17;451850;116;923138;-76
2021/10/01 03:40:10;;;;;;;7.51;6.33;;;;;;;6.00;61.67;102594.59;450921;116;922672;-77
2021/10/01 03:41:16;;;;;;;7.79;6.01;;;;;;;5.98;61.65;102599.28;451469;114;923020;-77
2021/10/01 03:42:19;;;;;;;8.51;6.90;;;;;;;5.96;61.63;102602.12;445030;117;922689;-77
2021/10/01 03:43:24;;;;;;;6.85;6.17;;;;;;;5.95;61.70;102600.43;444268;116;922751;-78
2021/10/01 03:44:28;;;;;;;8.97;6.66;;;;;;;5.93;61.75;102602.41;451791;116;930545;-78
2021/10/01 03:45:32;;;;;;;7.63;6.82;;;;;;;5.94;61.78;102604.13;452156;116;923056;-78
2021/10/01 03:46:35;;;;;;;7.47;6.75;;;;;;;5.96;61.81;102606.67;452478;116;922864;-78
2021/10/01 03:47:41;;;;;;;8.41;6.04;;;;;;;5.97;61.79;102608.39;450958;116;923004;-77
2021/10/01 03:48:44;;;;;;;8.00;6.76;;;;;;;5.98;61.75;102604.70;452842;116;922483;-78
2021/10/01 03:49:48;;;;;;;6.40;5.92;;;;;;;5.98;61.73;102608.27;453461;116;930447;-78
2021/10/01 03:50:52;;;;;;;8.06;7.21;;;;;;;5.99;61.61;102603.71;452447;116;923085;-78
2021/10/01 03:51:58;;;;;;;7.86;7.02;;;;;;;5.99;61.51;102606.42;452023;116;922904;-78
2021/10/01 03:53:02;;;;;;;9.10;6.66;;;;;;;5.98;61.49;102604.70;451131;116;922485;-77
2021/10/01 03:54:06;;;;;;;9.87;7.83;;;;;;;5.98;61.42;102604.70;450043;116;922596;-78
2021/10/01 03:55:14;;;;;;;10.05;7.61;;;;;;;5.95;61.33;102603.14;452242;116;922976;-79
2021/10/01 03:56:17;;;;;;;10.14;7.47;;;;;;;5.91;61.28;102598.96;453310;116;922382;-78
2021/10/01 03:57:21;;;;;;;8.92;7.51;;;;;;;5.87;61.34;102602.94;453708;116;922581;-77
2021/10/01 03:58:26;;;;;;;8.52;6.93;;;;;;;5.84;61.42;102603.19;450759;116;922894;-78
2021/10/01 03:59:32;;;;;;;7.64;6.93;;;;;;;5.81;61.50;102603.44;452043;116;922705;-76
2021/10/01 04:00:37;;;;;;;7.84;7.11;;;;;;;5.78;61.52;102601.02;452561;116;922532;-76
2021/10/01 04:01:40;;;;;;;10.92;6.69;;;;;;;5.75;61.56;102601.27;452914;116;922513;-78
2021/10/01 04:02:44;;;;;;;8.60;7.57;;;;;;;5.72;61.71;102612.38;452930;116;922790;-77
2021/10/01 04:03:49;;;;;;;8.25;7.47;;;;;;;5.71;61.86;102610.66;445854;119;922590;-77
2021/10/01 04:04:52;;;;;;;7.71;6.91;;;;;;;5.71;61.94;102610.66;446385;116;922736;-78
2021/10/01 04:05:56;;;;;;;7.95;6.70;;;;;;;5.70;61.95;102612.50;452674;116;922708;-78
2021/10/01 04:07:01;;;;;;;11.09;6.72;;;;;;;5.70;62.01;102612.50;452166;116;930451;-77
2021/10/01 04:08:12;;;;;;;7.45;5.97;;;;;;;5.70;62.08;102607.09;453086;116;930457;-77
2021/10/01 04:09:17;;;;;;;7.37;6.46;;;;;;;5.71;62.13;102606.11;450881;116;922531;-77
2021/10/01 04:10:21;;;;;;;9.44;6.58;;;;;;;5.73;62.04;102603.27;453234;116;922685;-79
2021/10/01 04:11:25;;;;;;;9.50;6.31;;;;;;;5.73;62.07;102609.52;452864;116;923011;-80
2021/10/01 04:12:29;;;;;;;8.14;7.02;;;;;;;5.74;62.11;102604.96;451489;116;923064;-78
2021/10/01 04:13:33;;;;;;;7.36;6.51;;;;;;;5.73;62.13;102600.56;452431;116;922658;-83
2021/10/01 04:14:37;;;;;;;10.16;6.77;;;;;;;5.74;62.17;102613.08;450949;116;922547;-77
2021/10/01 04:15:41;;;;;;;7.35;6.71;;;;;;;5.75;62.24;102609.39;452087;116;922964;-80
2021/10/01 04:16:46;;;;;;;6.94;6.34;;;;;;;5.79;62.14;102616.24;452811;116;922983;-79
2021/10/01 04:17:49;;;;;;;7.71;6.46;;;;;;;5.79;62.14;102616.24;453714;116;930501;-78
2021/10/01 04:18:53;;;;;;;7.05;5.94;;;;;;;5.82;62.26;102610.58;452022;116;922461;-78
2021/10/01 04:19:57;;;;;;;6.94;5.93;;;;;;;5.84;62.25;102611.31;448603;117;923324;-79
2021/10/01 04:21:01;;;;;;;8.22;5.34;;;;;;;5.86;62.28;102610.17;441654;119;922769;-79
2021/10/01 04:22:05;;;;;;;6.82;6.14;;;;;;;5.89;62.27;102609.09;442595;116;923004;-77
2021/10/01 04:23:12;;;;;;;6.75;6.11;;;;;;;5.93;62.24;102615.08;448944;116;923056;-79
2021/10/01 04:24:26;;;;;;;7.06;5.57;;;;;;;5.95;62.24;102611.26;444157;118;922575;-78
2021/10/01 04:25:31;;;;;;;5.33;4.86;;;;;;;5.98;62.20;102607.41;446139;116;923023;-79
2021/10/01 04:26:36;;;;;;;6.01;5.31;;;;;;;6.00;62.13;102611.70;450933;116;922469;-78
2021/10/01 04:27:40;;;;;;;7.43;5.66;;;;;;;6.01;62.06;102607.98;451975;116;930441;-78
2021/10/01 04:28:47;;;;;;;6.35;5.69;;;;;;;6.01;62.06;102607.98;452959;116;930450;-79
2021/10/01 04:29:52;;;;;;;7.28;6.58;;;;;;;6.04;62.06;102609.58;451148;116;922545;-78
2021/10/01 04:30:57;;;;;;;7.32;6.64;;;;;;;6.05;62.06;102612.16;452524;116;922505;-78
2021/10/01 04:32:04;;;;;;;21.06;7.33;;;;;;;6.07;62.01;102617.41;453144;116;922689;-80
2021/10/01 04:33:41;;;;;;;7.66;7.09;;;;;;;6.07;62.03;102615.56;451381;116;930164;-79
2021/10/01 04:34:18;;;;;;;6.86;6.33;;;;;;;6.08;61.96;102628.12;426526;121;923381;-78
2021/10/01 04:35:22;;;;;;;7.12;6.54;;;;;;;6.07;61.90;102626.39;445526;116;922858;-79
2021/10/01 04:36:26;;;;;;;7.33;6.58;;;;;;;6.05;61.88;102619.42;444690;117;922526;-78
2021/10/01 04:37:30;;;;;;;7.78;7.09;;;;;;;6.04;61.90;102618.56;446082;116;923347;-77
2021/10/01 04:38:34;;;;;;;10.18;7.43;;;;;;;6.03;61.94;102624.96;453358;116;923054;-79
2021/10/01 04:39:38;;;;;;;10.05;7.44;;;;;;;6.02;61.98;102622.38;450539;116;930535;-78
2021/10/01 04:40:42;;;;;;;8.39;7.54;;;;;;;6.00;62.00;102627.95;451427;116;922624;-78
2021/10/01 04:41:46;;;;;;;10.62;7.62;;;;;;;5.99;62.08;102622.67;445967;116;922593;-77
2021/10/01 04:42:49;;;;;;;10.47;9.47;;;;;;;5.98;62.19;102624.52;445135;116;922590;-78
2021/10/01 04:43:53;;;;;;;9.34;8.40;;;;;;;5.97;62.25;102622.80;453117;116;922554;-76
2021/10/01 04:45:01;;;;;;;10.59;9.08;;;;;;;5.98;62.36;102620.95;451966;116;930618;-77
2021/10/01 04:46:05;;;;;;;9.90;8.21;;;;;;;5.98;62.45;102619.09;451382;116;923022;-77
2021/10/01 04:47:08;;;;;;;14.31;8.09;;;;;;;5.99;62.48;102619.95;451901;116;923008;-77
2021/10/01 04:48:12;;;;;;;8.22;7.46;;;;;;;6.00;62.57;102624.39;451509;116;922607;-78
2021/10/01 04:49:16;;;;;;;10.17;8.18;;;;;;;6.00;62.57;102621.68;450949;116;930372;-78
2021/10/01 04:50:22;;;;;;;8.64;7.55;;;;;;;6.01;62.67;102620.69;452232;116;930452;-76
2021/10/01 04:51:26;;;;;;;10.82;7.80;;;;;;;6.01;62.74;102615.28;452603;116;922323;-78
2021/10/01 04:52:30;;;;;;;17.45;7.93;;;;;;;6.01;62.81;102621.52;452449;116;922103;-79
2021/10/01 04:53:34;;;;;;;8.65;7.38;;;;;;;6.04;62.86;102631.23;451818;116;922502;-77
2021/10/01 04:54:38;;;;;;;8.22;7.45;;;;;;;6.04;62.88;102621.27;450773;116;922741;-78
2021/10/01 04:55:42;;;;;;;8.48;7.42;;;;;;;6.06;62.91;102631.97;441598;117;922965;-79
2021/10/01 04:56:47;;;;;;;9.26;7.67;;;;;;;6.05;62.99;102625.70;447457;116;930666;-79
2021/10/01 04:57:53;;;;;;;9.55;8.14;;;;;;;6.07;63.10;102626.39;453014;116;922907;-79
2021/10/01 04:59:01;;;;;;;8.62;7.61;;;;;;;6.09;63.16;102627.13;440132;118;922856;-77
2021/10/01 05:00:13;;;;;;;8.43;6.92;;;;;;;6.12;63.17;102632.27;432703;120;930930;-75
2021/10/01 05:01:20;;;;;;;7.92;7.24;;;;;;;6.13;63.27;102630.41;416713;125;923498;-79
2021/10/01 05:02:41;;;;;;;7.84;6.03;;;;;;;6.16;63.38;102630.16;414350;125;923976;-75
2021/10/01 05:03:47;;;;;;;10.00;7.12;;;;;;;6.20;63.36;102632.45;417171;126;922762;-78
2021/10/01 05:05:09;;;;;;;8.99;6.78;;;;;;;6.23;63.38;102631.30;421924;120;923331;-79
2021/10/01 05:06:30;;;;;;;10.91;6.36;;;;;;;6.26;63.43;102628.34;431174;121;922850;-77
2021/10/01 05:07:41;;;;;;;6.04;5.54;;;;;;;6.29;63.46;102628.05;415974;127;923381;-77
2021/10/01 05:08:52;;;;;;;7.29;5.97;;;;;;;6.44;63.42;102633.97;475252;110;946926;-77